This is the latest recevied weather packets stored in our database for station/object WA7ABU-29. If no packets are shown the sender has not sent any weather packets the latest 10 day(s).
| Time | Temp. | Humidity | Pressure | Rain* | Wind** | Luminosity | Snow |
|---|---|---|---|---|---|---|---|
| 1777000603 | 10° C | 71% | 1001 hPa | 0 mm | - | - | - |
| 1776999984 | 10° C | 70% | 1001 hPa | 0 mm | - | - | - |
| 1776999455 | 10° C | 70% | 1001 hPa | 0 mm | - | - | - |
| 1776999208 | 10° C | 69% | 1000.7 hPa | 0 mm | - | - | - |
| 1776998442 | 10° C | 70% | 1000.7 hPa | 0 mm | - | - | - |
| 1776997937 | 10° C | 69% | 1001 hPa | 0 mm | - | - | - |
| 1776997814 | 10° C | 70% | 1001 hPa | 0 mm | - | - | - |
| 1776996666 | 10° C | 72% | 1000.7 hPa | 0 mm | - | - | - |
| 1776995269 | 11.11° C | 70% | 1001.4 hPa | 0 mm | - | - | - |
| 1776994990 | 11.67° C | 70% | 1001 hPa | 0 mm | - | - | - |
| 1776994618 | 11.67° C | 69% | 1001 hPa | 0 mm | - | - | - |
| 1776994059 | 11.67° C | 68% | 1001 hPa | 0 mm | - | - | - |
| 1776993936 | 11.67° C | 66% | 1001.4 hPa | 0 mm | - | - | - |
| 1776993688 | 11.67° C | 66% | 1001.4 hPa | 0 mm | - | - | - |
| 1776992456 | 12.22° C | 63% | 1001.4 hPa | 0 mm | - | - | - |
| 1776991826 | 11.67° C | 64% | 1001.7 hPa | 0 mm | - | - | - |
| 1776991557 | 12.22° C | 62% | 1001.7 hPa | 0 mm | - | - | - |
| 1776991176 | 12.22° C | 61% | 1001.7 hPa | 0 mm | - | - | - |
| 1776990130 | 13.33° C | 58% | 1002 hPa | 0 mm | - | - | - |
| 1776989872 | 13.33° C | 60% | 1001.7 hPa | 0 mm | - | - | - |
| 1776989005 | 13.89° C | 55% | 1002 hPa | 0 mm | - | - | - |
| 1776988476 | 12.78° C | 60% | 1002.4 hPa | 0 mm | - | - | - |
| 1776987513 | 12.78° C | 62% | 1002.4 hPa | 0 mm | - | - | - |
| 1776987265 | 12.78° C | 64% | 1002.4 hPa | 0 mm | - | - | - |
| 1776986332 | 11.67° C | 62% | 1002.7 hPa | 0 mm | - | - | - |
* Rain latest hour (hover to see other rain measurements)
** Current wind speed in m/s (hover to see current wind gust speed)